sensor_id;sensor_type;location;lat;lon;timestamp;temperature;humidity
21090;DHT22;10703;51.020;6.128;2023-09-12T00:00:39;18.20;99.90
21090;DHT22;10703;51.020;6.128;2023-09-12T00:03:05;18.20;99.90
21090;DHT22;10703;51.020;6.128;2023-09-12T00:05:32;18.20;99.90
21090;DHT22;10703;51.020;6.128;2023-09-12T00:07:59;18.20;99.90
21090;DHT22;10703;51.020;6.128;2023-09-12T00:10:26;18.20;99.90
21090;DHT22;10703;51.020;6.128;2023-09-12T00:12:53;18.20;99.90
21090;DHT22;10703;51.020;6.128;2023-09-12T00:15:20;18.20;99.90
21090;DHT22;10703;51.020;6.128;2023-09-12T00:17:47;18.10;99.90
21090;DHT22;10703;51.020;6.128;2023-09-12T00:20:15;18.00;99.90
21090;DHT22;10703;51.020;6.128;2023-09-12T00:22:42;18.00;99.90
21090;DHT22;10703;51.020;6.128;2023-09-12T00:25:09;18.00;99.90
21090;DHT22;10703;51.020;6.128;2023-09-12T00:27:35;18.00;99.90
21090;DHT22;10703;51.020;6.128;2023-09-12T00:30:02;18.00;99.90
21090;DHT22;10703;51.020;6.128;2023-09-12T00:32:29;17.90;99.90
21090;DHT22;10703;51.020;6.128;2023-09-12T00:34:56;17.80;99.90
21090;DHT22;10703;51.020;6.128;2023-09-12T00:37:22;17.80;99.90
21090;DHT22;10703;51.020;6.128;2023-09-12T00:39:49;17.80;99.90
21090;DHT22;10703;51.020;6.128;2023-09-12T00:42:15;17.80;99.90
21090;DHT22;10703;51.020;6.128;2023-09-12T00:44:42;17.80;99.90
21090;DHT22;10703;51.020;6.128;2023-09-12T00:47:10;17.70;99.90
21090;DHT22;10703;51.020;6.128;2023-09-12T00:49:38;17.70;99.90
21090;DHT22;10703;51.020;6.128;2023-09-12T00:52:05;17.60;99.90
21090;DHT22;10703;51.020;6.128;2023-09-12T00:54:32;17.60;99.90
21090;DHT22;10703;51.020;6.128;2023-09-12T00:56:58;17.70;99.90
21090;DHT22;10703;51.020;6.128;2023-09-12T00:59:25;17.70;99.90
21090;DHT22;10703;51.020;6.128;2023-09-12T01:01:52;17.60;99.90
21090;DHT22;10703;51.020;6.128;2023-09-12T01:04:19;17.60;99.90
21090;DHT22;10703;51.020;6.128;2023-09-12T01:07:00;17.60;99.90
21090;DHT22;10703;51.020;6.128;2023-09-12T01:09:26;17.60;99.90
21090;DHT22;10703;51.020;6.128;2023-09-12T01:11:54;17.60;99.90
21090;DHT22;10703;51.020;6.128;2023-09-12T01:14:21;17.60;99.90
21090;DHT22;10703;51.020;6.128;2023-09-12T01:16:47;17.70;99.90
21090;DHT22;10703;51.020;6.128;2023-09-12T01:19:15;17.70;99.90
21090;DHT22;10703;51.020;6.128;2023-09-12T01:27:20;17.70;99.90
21090;DHT22;10703;51.020;6.128;2023-09-12T01:29:51;17.70;99.90
21090;DHT22;10703;51.020;6.128;2023-09-12T01:32:20;17.80;99.90
21090;DHT22;10703;51.020;6.128;2023-09-12T01:34:47;17.90;99.90
21090;DHT22;10703;51.020;6.128;2023-09-12T01:37:14;18.00;99.90
21090;DHT22;10703;51.020;6.128;2023-09-12T01:39:41;18.20;99.90
21090;DHT22;10703;51.020;6.128;2023-09-12T01:42:11;18.10;99.90
21090;DHT22;10703;51.020;6.128;2023-09-12T01:44:41;18.10;99.90
21090;DHT22;10703;51.020;6.128;2023-09-12T01:47:10;18.10;99.90
21090;DHT22;10703;51.020;6.128;2023-09-12T01:49:41;18.10;99.90
21090;DHT22;10703;51.020;6.128;2023-09-12T01:52:09;18.00;99.90
21090;DHT22;10703;51.020;6.128;2023-09-12T01:54:36;18.00;99.90
21090;DHT22;10703;51.020;6.128;2023-09-12T01:57:04;18.00;99.90
21090;DHT22;10703;51.020;6.128;2023-09-12T01:59:31;18.00;99.90
21090;DHT22;10703;51.020;6.128;2023-09-12T02:01:58;17.90;99.90
21090;DHT22;10703;51.020;6.128;2023-09-12T02:04:25;17.80;99.90
21090;DHT22;10703;51.020;6.128;2023-09-12T02:06:54;17.80;99.90
21090;DHT22;10703;51.020;6.128;2023-09-12T02:09:20;17.80;99.90
21090;DHT22;10703;51.020;6.128;2023-09-12T02:11:49;17.90;99.90
21090;DHT22;10703;51.020;6.128;2023-09-12T02:14:15;17.90;99.90
21090;DHT22;10703;51.020;6.128;2023-09-12T02:16:44;17.90;99.90
21090;DHT22;10703;51.020;6.128;2023-09-12T02:19:11;17.80;99.90
21090;DHT22;10703;51.020;6.128;2023-09-12T02:21:38;17.80;99.90
21090;DHT22;10703;51.020;6.128;2023-09-12T02:24:05;17.80;99.90
21090;DHT22;10703;51.020;6.128;2023-09-12T02:26:31;17.90;99.90
21090;DHT22;10703;51.020;6.128;2023-09-12T02:29:06;17.90;99.90
21090;DHT22;10703;51.020;6.128;2023-09-12T02:31:33;17.80;99.90
21090;DHT22;10703;51.020;6.128;2023-09-12T02:33:59;17.70;99.90
21090;DHT22;10703;51.020;6.128;2023-09-12T02:36:26;17.70;99.90
21090;DHT22;10703;51.020;6.128;2023-09-12T02:38:54;17.70;99.90
21090;DHT22;10703;51.020;6.128;2023-09-12T02:41:21;17.70;99.90
21090;DHT22;10703;51.020;6.128;2023-09-12T02:43:47;17.60;99.90
21090;DHT22;10703;51.020;6.128;2023-09-12T02:46:14;17.60;99.90
21090;DHT22;10703;51.020;6.128;2023-09-12T02:48:40;17.60;99.90
21090;DHT22;10703;51.020;6.128;2023-09-12T02:51:08;17.60;99.90
21090;DHT22;10703;51.020;6.128;2023-09-12T02:53:34;17.60;99.90
21090;DHT22;10703;51.020;6.128;2023-09-12T02:56:01;17.60;99.90
21090;DHT22;10703;51.020;6.128;2023-09-12T02:58:28;17.50;99.90
21090;DHT22;10703;51.020;6.128;2023-09-12T03:00:54;17.50;99.90
21090;DHT22;10703;51.020;6.128;2023-09-12T03:03:21;17.50;99.90
21090;DHT22;10703;51.020;6.128;2023-09-12T03:06:00;17.40;99.90
21090;DHT22;10703;51.020;6.128;2023-09-12T03:08:26;17.40;99.90
21090;DHT22;10703;51.020;6.128;2023-09-12T03:10:57;17.50;99.90
21090;DHT22;10703;51.020;6.128;2023-09-12T03:13:28;17.60;99.90
21090;DHT22;10703;51.020;6.128;2023-09-12T03:15:54;17.60;99.90
21090;DHT22;10703;51.020;6.128;2023-09-12T03:18:21;17.50;99.90
21090;DHT22;10703;51.020;6.128;2023-09-12T03:20:48;17.50;99.90
21090;DHT22;10703;51.020;6.128;2023-09-12T03:23:14;17.50;99.90
21090;DHT22;10703;51.020;6.128;2023-09-12T03:25:41;17.50;99.90
21090;DHT22;10703;51.020;6.128;2023-09-12T03:28:08;17.50;99.90
21090;DHT22;10703;51.020;6.128;2023-09-12T03:30:36;17.50;99.90
21090;DHT22;10703;51.020;6.128;2023-09-12T03:33:04;17.50;99.90
21090;DHT22;10703;51.020;6.128;2023-09-12T03:35:32;17.50;99.90
21090;DHT22;10703;51.020;6.128;2023-09-12T03:37:59;17.50;99.90
21090;DHT22;10703;51.020;6.128;2023-09-12T03:40:30;17.50;99.90
21090;DHT22;10703;51.020;6.128;2023-09-12T03:42:57;17.50;99.90
21090;DHT22;10703;51.020;6.128;2023-09-12T03:45:24;17.50;99.90
21090;DHT22;10703;51.020;6.128;2023-09-12T03:47:51;17.50;99.90
21090;DHT22;10703;51.020;6.128;2023-09-12T03:50:18;17.60;99.90
21090;DHT22;10703;51.020;6.128;2023-09-12T03:52:45;17.60;99.90
21090;DHT22;10703;51.020;6.128;2023-09-12T03:55:11;17.60;99.90
21090;DHT22;10703;51.020;6.128;2023-09-12T03:57:38;17.70;99.90
21090;DHT22;10703;51.020;6.128;2023-09-12T04:00:05;17.60;99.90
21090;DHT22;10703;51.020;6.128;2023-09-12T04:02:32;17.60;99.90
21090;DHT22;10703;51.020;6.128;2023-09-12T04:04:59;17.70;99.90
21090;DHT22;10703;51.020;6.128;2023-09-12T04:07:26;17.60;99.90
21090;DHT22;10703;51.020;6.128;2023-09-12T04:09:52;17.60;99.90
21090;DHT22;10703;51.020;6.128;2023-09-12T04:12:19;17.60;99.90
21090;DHT22;10703;51.020;6.128;2023-09-12T04:14:46;17.70;99.90
21090;DHT22;10703;51.020;6.128;2023-09-12T04:17:12;17.60;99.90
21090;DHT22;10703;51.020;6.128;2023-09-12T04:19:39;17.70;99.90
21090;DHT22;10703;51.020;6.128;2023-09-12T04:22:05;17.70;99.90
21090;DHT22;10703;51.020;6.128;2023-09-12T04:24:32;17.70;99.90
21090;DHT22;10703;51.020;6.128;2023-09-12T04:26:59;17.80;99.90
21090;DHT22;10703;51.020;6.128;2023-09-12T04:29:25;17.90;99.90
21090;DHT22;10703;51.020;6.128;2023-09-12T04:31:53;18.00;99.90
21090;DHT22;10703;51.020;6.128;2023-09-12T04:34:25;18.00;99.90
21090;DHT22;10703;51.020;6.128;2023-09-12T04:36:53;18.10;99.90
21090;DHT22;10703;51.020;6.128;2023-09-12T04:39:20;18.10;99.90
21090;DHT22;10703;51.020;6.128;2023-09-12T04:41:46;18.10;99.90
21090;DHT22;10703;51.020;6.128;2023-09-12T04:44:13;18.10;99.90
21090;DHT22;10703;51.020;6.128;2023-09-12T04:46:40;18.10;99.90
21090;DHT22;10703;51.020;6.128;2023-09-12T04:49:10;18.00;99.90
21090;DHT22;10703;51.020;6.128;2023-09-12T04:51:36;18.10;99.90
21090;DHT22;10703;51.020;6.128;2023-09-12T04:54:04;18.10;99.90
21090;DHT22;10703;51.020;6.128;2023-09-12T04:56:30;18.10;99.90
21090;DHT22;10703;51.020;6.128;2023-09-12T04:58:57;18.20;99.90
21090;DHT22;10703;51.020;6.128;2023-09-12T05:01:23;18.30;99.90
21090;DHT22;10703;51.020;6.128;2023-09-12T05:03:52;18.30;99.90
21090;DHT22;10703;51.020;6.128;2023-09-12T05:06:19;18.30;99.90
21090;DHT22;10703;51.020;6.128;2023-09-12T05:08:45;18.30;99.90
21090;DHT22;10703;51.020;6.128;2023-09-12T05:11:12;18.20;99.90
21090;DHT22;10703;51.020;6.128;2023-09-12T05:13:38;18.20;99.90
21090;DHT22;10703;51.020;6.128;2023-09-12T05:16:05;18.10;99.90
21090;DHT22;10703;51.020;6.128;2023-09-12T05:18:32;18.10;99.90
21090;DHT22;10703;51.020;6.128;2023-09-12T05:20:58;18.10;99.90
21090;DHT22;10703;51.020;6.128;2023-09-12T05:23:25;18.10;99.90
21090;DHT22;10703;51.020;6.128;2023-09-12T05:25:52;18.00;99.90
21090;DHT22;10703;51.020;6.128;2023-09-12T05:28:18;18.00;99.90
21090;DHT22;10703;51.020;6.128;2023-09-12T05:30:46;18.00;99.90
21090;DHT22;10703;51.020;6.128;2023-09-12T05:33:12;18.00;99.90
21090;DHT22;10703;51.020;6.128;2023-09-12T05:35:39;18.00;99.90
21090;DHT22;10703;51.020;6.128;2023-09-12T05:38:06;18.00;99.90
21090;DHT22;10703;51.020;6.128;2023-09-12T05:40:33;18.00;99.90
21090;DHT22;10703;51.020;6.128;2023-09-12T05:43:00;18.00;99.90
21090;DHT22;10703;51.020;6.128;2023-09-12T05:45:27;17.90;99.90
21090;DHT22;10703;51.020;6.128;2023-09-12T05:47:56;18.10;99.90
21090;DHT22;10703;51.020;6.128;2023-09-12T05:50:23;17.90;99.90
21090;DHT22;10703;51.020;6.128;2023-09-12T05:52:49;17.90;99.90
21090;DHT22;10703;51.020;6.128;2023-09-12T05:55:17;17.90;99.90
21090;DHT22;10703;51.020;6.128;2023-09-12T05:57:44;18.00;99.90
21090;DHT22;10703;51.020;6.128;2023-09-12T06:00:11;18.00;99.90
21090;DHT22;10703;51.020;6.128;2023-09-12T06:02:39;18.00;99.90
21090;DHT22;10703;51.020;6.128;2023-09-12T06:05:06;18.00;99.90
21090;DHT22;10703;51.020;6.128;2023-09-12T06:07:32;18.00;99.90
21090;DHT22;10703;51.020;6.128;2023-09-12T06:09:59;18.00;99.90
21090;DHT22;10703;51.020;6.128;2023-09-12T06:12:26;18.10;99.90
21090;DHT22;10703;51.020;6.128;2023-09-12T06:14:53;18.10;99.90
21090;DHT22;10703;51.020;6.128;2023-09-12T06:17:22;18.10;99.90
21090;DHT22;10703;51.020;6.128;2023-09-12T06:19:49;18.10;99.90
21090;DHT22;10703;51.020;6.128;2023-09-12T06:22:15;18.20;99.90
21090;DHT22;10703;51.020;6.128;2023-09-12T06:24:44;18.20;99.90
21090;DHT22;10703;51.020;6.128;2023-09-12T06:27:10;18.20;99.90
21090;DHT22;10703;51.020;6.128;2023-09-12T06:29:46;18.30;99.90
21090;DHT22;10703;51.020;6.128;2023-09-12T06:32:17;18.30;99.90
21090;DHT22;10703;51.020;6.128;2023-09-12T06:34:44;18.30;99.90
21090;DHT22;10703;51.020;6.128;2023-09-12T06:37:11;18.30;99.90
21090;DHT22;10703;51.020;6.128;2023-09-12T06:39:38;18.30;99.90
21090;DHT22;10703;51.020;6.128;2023-09-12T06:42:05;18.30;99.90
21090;DHT22;10703;51.020;6.128;2023-09-12T06:44:34;18.30;99.90
21090;DHT22;10703;51.020;6.128;2023-09-12T06:47:04;18.30;99.90
21090;DHT22;10703;51.020;6.128;2023-09-12T06:49:33;18.30;99.90
21090;DHT22;10703;51.020;6.128;2023-09-12T06:52:01;18.40;99.90
21090;DHT22;10703;51.020;6.128;2023-09-12T06:54:28;18.50;99.90
21090;DHT22;10703;51.020;6.128;2023-09-12T06:56:55;18.60;99.90
21090;DHT22;10703;51.020;6.128;2023-09-12T06:59:21;18.60;99.90
21090;DHT22;10703;51.020;6.128;2023-09-12T07:01:48;18.80;99.90
21090;DHT22;10703;51.020;6.128;2023-09-12T07:04:15;19.00;99.90
21090;DHT22;10703;51.020;6.128;2023-09-12T07:06:42;19.00;99.90
21090;DHT22;10703;51.020;6.128;2023-09-12T07:09:09;19.20;99.90
21090;DHT22;10703;51.020;6.128;2023-09-12T07:11:38;19.30;99.90
21090;DHT22;10703;51.020;6.128;2023-09-12T07:14:04;19.50;99.90
21090;DHT22;10703;51.020;6.128;2023-09-12T07:16:32;19.70;99.90
21090;DHT22;10703;51.020;6.128;2023-09-12T07:18:59;20.00;99.90
21090;DHT22;10703;51.020;6.128;2023-09-12T07:21:26;20.00;99.90
21090;DHT22;10703;51.020;6.128;2023-09-12T07:23:52;20.00;99.90
21090;DHT22;10703;51.020;6.128;2023-09-12T07:26:19;20.40;99.90
21090;DHT22;10703;51.020;6.128;2023-09-12T07:28:46;20.80;99.90
21090;DHT22;10703;51.020;6.128;2023-09-12T07:31:13;21.00;99.90
21090;DHT22;10703;51.020;6.128;2023-09-12T07:33:40;21.30;99.90
21090;DHT22;10703;51.020;6.128;2023-09-12T07:36:08;21.20;99.90
21090;DHT22;10703;51.020;6.128;2023-09-12T07:38:35;21.40;99.90
21090;DHT22;10703;51.020;6.128;2023-09-12T07:41:03;21.00;99.90
21090;DHT22;10703;51.020;6.128;2023-09-12T07:43:30;20.90;99.90
21090;DHT22;10703;51.020;6.128;2023-09-12T07:45:57;21.10;99.90
21090;DHT22;10703;51.020;6.128;2023-09-12T07:48:24;21.30;99.90
21090;DHT22;10703;51.020;6.128;2023-09-12T07:50:51;21.50;99.90
21090;DHT22;10703;51.020;6.128;2023-09-12T07:53:18;21.50;99.90
21090;DHT22;10703;51.020;6.128;2023-09-12T07:55:45;21.50;99.90
21090;DHT22;10703;51.020;6.128;2023-09-12T07:58:16;21.40;99.90
21090;DHT22;10703;51.020;6.128;2023-09-12T08:00:46;21.60;99.90
21090;DHT22;10703;51.020;6.128;2023-09-12T08:03:13;21.50;99.90
21090;DHT22;10703;51.020;6.128;2023-09-12T08:05:42;21.50;99.90
21090;DHT22;10703;51.020;6.128;2023-09-12T08:08:09;21.70;99.90
21090;DHT22;10703;51.020;6.128;2023-09-12T08:10:36;22.00;99.90
21090;DHT22;10703;51.020;6.128;2023-09-12T08:13:03;22.70;99.90
21090;DHT22;10703;51.020;6.128;2023-09-12T08:15:29;23.30;99.90
21090;DHT22;10703;51.020;6.128;2023-09-12T08:17:57;24.00;99.90
21090;DHT22;10703;51.020;6.128;2023-09-12T08:20:23;24.40;99.90
21090;DHT22;10703;51.020;6.128;2023-09-12T08:22:50;24.60;99.90
21090;DHT22;10703;51.020;6.128;2023-09-12T08:25:17;24.80;99.90
21090;DHT22;10703;51.020;6.128;2023-09-12T08:27:44;25.10;99.90
21090;DHT22;10703;51.020;6.128;2023-09-12T08:30:12;25.00;99.90
21090;DHT22;10703;51.020;6.128;2023-09-12T08:32:43;24.60;99.90
21090;DHT22;10703;51.020;6.128;2023-09-12T08:35:17;24.30;99.90
21090;DHT22;10703;51.020;6.128;2023-09-12T08:37:46;24.30;99.90
21090;DHT22;10703;51.020;6.128;2023-09-12T08:40:14;24.50;99.90
21090;DHT22;10703;51.020;6.128;2023-09-12T08:42:42;24.80;99.90
21090;DHT22;10703;51.020;6.128;2023-09-12T08:45:15;25.30;99.90
21090;DHT22;10703;51.020;6.128;2023-09-12T08:47:49;25.80;99.90
21090;DHT22;10703;51.020;6.128;2023-09-12T08:50:17;25.90;99.90
21090;DHT22;10703;51.020;6.128;2023-09-12T08:52:45;26.40;99.90
21090;DHT22;10703;51.020;6.128;2023-09-12T08:55:32;26.70;99.90
21090;DHT22;10703;51.020;6.128;2023-09-12T08:58:03;27.00;99.90
21090;DHT22;10703;51.020;6.128;2023-09-12T09:00:30;27.20;99.90
21090;DHT22;10703;51.020;6.128;2023-09-12T09:02:57;27.60;99.90
21090;DHT22;10703;51.020;6.128;2023-09-12T09:05:25;27.40;99.90
21090;DHT22;10703;51.020;6.128;2023-09-12T09:07:54;27.60;99.90
21090;DHT22;10703;51.020;6.128;2023-09-12T09:10:22;28.30;99.90
21090;DHT22;10703;51.020;6.128;2023-09-12T09:13:08;29.00;99.90
21090;DHT22;10703;51.020;6.128;2023-09-12T09:15:36;29.00;99.90
21090;DHT22;10703;51.020;6.128;2023-09-12T09:18:04;28.60;99.90
21090;DHT22;10703;51.020;6.128;2023-09-12T09:20:33;28.70;99.90
21090;DHT22;10703;51.020;6.128;2023-09-12T09:23:05;29.10;99.90
21090;DHT22;10703;51.020;6.128;2023-09-12T09:25:33;29.10;99.90
21090;DHT22;10703;51.020;6.128;2023-09-12T09:28:03;28.90;99.90
21090;DHT22;10703;51.020;6.128;2023-09-12T09:30:41;29.20;99.90
21090;DHT22;10703;51.020;6.128;2023-09-12T09:33:09;29.70;99.90
21090;DHT22;10703;51.020;6.128;2023-09-12T09:35:36;30.20;99.90
21090;DHT22;10703;51.020;6.128;2023-09-12T09:38:05;30.60;99.90
21090;DHT22;10703;51.020;6.128;2023-09-12T09:40:32;30.40;99.90
21090;DHT22;10703;51.020;6.128;2023-09-12T09:43:00;30.20;99.90
21090;DHT22;10703;51.020;6.128;2023-09-12T09:45:29;30.20;99.90
21090;DHT22;10703;51.020;6.128;2023-09-12T09:48:04;30.20;99.90
21090;DHT22;10703;51.020;6.128;2023-09-12T09:50:34;30.80;99.90
21090;DHT22;10703;51.020;6.128;2023-09-12T09:53:04;30.30;99.90
21090;DHT22;10703;51.020;6.128;2023-09-12T09:55:35;30.30;99.90
21090;DHT22;10703;51.020;6.128;2023-09-12T09:58:02;30.40;99.90
21090;DHT22;10703;51.020;6.128;2023-09-12T10:00:33;31.10;99.90
21090;DHT22;10703;51.020;6.128;2023-09-12T10:03:02;31.50;99.90
21090;DHT22;10703;51.020;6.128;2023-09-12T10:05:32;31.10;99.90
21090;DHT22;10703;51.020;6.128;2023-09-12T10:07:59;30.70;99.90
21090;DHT22;10703;51.020;6.128;2023-09-12T10:10:29;30.20;99.90
21090;DHT22;10703;51.020;6.128;2023-09-12T10:12:57;29.60;99.90
21090;DHT22;10703;51.020;6.128;2023-09-12T10:15:29;29.60;99.90
21090;DHT22;10703;51.020;6.128;2023-09-12T10:18:02;29.00;99.90
21090;DHT22;10703;51.020;6.128;2023-09-12T10:20:52;28.70;99.90
21090;DHT22;10703;51.020;6.128;2023-09-12T10:23:32;29.00;99.90
21090;DHT22;10703;51.020;6.128;2023-09-12T10:26:03;28.70;99.90
21090;DHT22;10703;51.020;6.128;2023-09-12T10:28:30;28.70;99.90
21090;DHT22;10703;51.020;6.128;2023-09-12T10:30:59;29.00;99.90
21090;DHT22;10703;51.020;6.128;2023-09-12T10:33:28;29.30;99.90
21090;DHT22;10703;51.020;6.128;2023-09-12T10:35:58;29.20;99.90
21090;DHT22;10703;51.020;6.128;2023-09-12T10:38:28;29.20;99.90
21090;DHT22;10703;51.020;6.128;2023-09-12T10:40:57;30.00;99.90
21090;DHT22;10703;51.020;6.128;2023-09-12T10:43:25;30.50;99.90
21090;DHT22;10703;51.020;6.128;2023-09-12T10:45:52;31.00;99.90
21090;DHT22;10703;51.020;6.128;2023-09-12T10:48:19;30.50;99.90
21090;DHT22;10703;51.020;6.128;2023-09-12T10:50:46;30.60;99.90
21090;DHT22;10703;51.020;6.128;2023-09-12T10:53:15;31.30;99.90
21090;DHT22;10703;51.020;6.128;2023-09-12T10:55:42;31.70;99.90
21090;DHT22;10703;51.020;6.128;2023-09-12T10:58:23;31.80;99.90
21090;DHT22;10703;51.020;6.128;2023-09-12T11:01:21;32.20;99.90
21090;DHT22;10703;51.020;6.128;2023-09-12T11:03:48;32.80;99.90
21090;DHT22;10703;51.020;6.128;2023-09-12T11:06:28;33.60;99.50
21090;DHT22;10703;51.020;6.128;2023-09-12T11:11:41;34.30;98.80
21090;DHT22;10703;51.020;6.128;2023-09-12T11:14:09;34.20;97.40
21090;DHT22;10703;51.020;6.128;2023-09-12T11:16:35;34.50;97.10
21090;DHT22;10703;51.020;6.128;2023-09-12T11:19:21;34.40;96.90
21090;DHT22;10703;51.020;6.128;2023-09-12T11:21:53;35.00;95.90
21090;DHT22;10703;51.020;6.128;2023-09-12T11:24:22;34.90;97.00
21090;DHT22;10703;51.020;6.128;2023-09-12T11:27:02;35.40;96.60
21090;DHT22;10703;51.020;6.128;2023-09-12T11:29:36;35.50;95.60
21090;DHT22;10703;51.020;6.128;2023-09-12T11:32:03;35.50;95.20
21090;DHT22;10703;51.020;6.128;2023-09-12T11:34:37;36.30;94.80
21090;DHT22;10703;51.020;6.128;2023-09-12T11:37:04;36.20;94.90
21090;DHT22;10703;51.020;6.128;2023-09-12T11:39:33;36.10;94.20
21090;DHT22;10703;51.020;6.128;2023-09-12T11:42:01;37.40;94.60
21090;DHT22;10703;51.020;6.128;2023-09-12T11:44:28;36.80;94.00
21090;DHT22;10703;51.020;6.128;2023-09-12T11:46:59;36.30;94.10
21090;DHT22;10703;51.020;6.128;2023-09-12T11:49:37;35.60;94.70
21090;DHT22;10703;51.020;6.128;2023-09-12T11:52:12;35.50;94.80
21090;DHT22;10703;51.020;6.128;2023-09-12T11:54:40;36.00;94.30
21090;DHT22;10703;51.020;6.128;2023-09-12T11:57:12;36.30;93.80
21090;DHT22;10703;51.020;6.128;2023-09-12T11:59:41;36.90;93.20
21090;DHT22;10703;51.020;6.128;2023-09-12T12:02:10;37.20;93.40
21090;DHT22;10703;51.020;6.128;2023-09-12T12:04:37;36.60;93.10
21090;DHT22;10703;51.020;6.128;2023-09-12T12:07:05;36.90;92.80
21090;DHT22;10703;51.020;6.128;2023-09-12T12:09:33;37.30;92.50
21090;DHT22;10703;51.020;6.128;2023-09-12T12:12:12;36.50;93.40
21090;DHT22;10703;51.020;6.128;2023-09-12T12:14:40;36.30;93.30
21090;DHT22;10703;51.020;6.128;2023-09-12T12:17:11;35.60;93.30
21090;DHT22;10703;51.020;6.128;2023-09-12T12:19:39;35.50;93.30
21090;DHT22;10703;51.020;6.128;2023-09-12T12:22:06;36.40;93.80
21090;DHT22;10703;51.020;6.128;2023-09-12T12:24:43;36.90;92.20
21090;DHT22;10703;51.020;6.128;2023-09-12T12:27:11;37.30;92.40
21090;DHT22;10703;51.020;6.128;2023-09-12T12:29:38;37.20;91.60
21090;DHT22;10703;51.020;6.128;2023-09-12T12:32:10;36.70;93.30
21090;DHT22;10703;51.020;6.128;2023-09-12T12:34:37;36.20;93.30
21090;DHT22;10703;51.020;6.128;2023-09-12T12:37:30;37.00;92.50
21090;DHT22;10703;51.020;6.128;2023-09-12T12:40:01;37.10;93.20
21090;DHT22;10703;51.020;6.128;2023-09-12T12:42:34;38.30;93.40
21090;DHT22;10703;51.020;6.128;2023-09-12T12:45:22;38.40;92.30
21090;DHT22;10703;51.020;6.128;2023-09-12T12:47:58;37.30;91.60
21090;DHT22;10703;51.020;6.128;2023-09-12T12:50:25;36.50;92.60
21090;DHT22;10703;51.020;6.128;2023-09-12T12:52:51;35.90;93.00
21090;DHT22;10703;51.020;6.128;2023-09-12T12:55:20;35.40;93.30
21090;DHT22;10703;51.020;6.128;2023-09-12T12:57:48;35.70;93.60
21090;DHT22;10703;51.020;6.128;2023-09-12T13:00:16;35.30;93.20
21090;DHT22;10703;51.020;6.128;2023-09-12T13:02:44;35.70;93.30
21090;DHT22;10703;51.020;6.128;2023-09-12T13:05:24;35.90;91.90
21090;DHT22;10703;51.020;6.128;2023-09-12T13:07:50;36.60;93.00
21090;DHT22;10703;51.020;6.128;2023-09-12T13:10:18;37.10;91.70
21090;DHT22;10703;51.020;6.128;2023-09-12T13:12:45;37.40;91.60
21090;DHT22;10703;51.020;6.128;2023-09-12T13:15:13;38.40;91.20
21090;DHT22;10703;51.020;6.128;2023-09-12T13:17:43;37.60;90.80
21090;DHT22;10703;51.020;6.128;2023-09-12T13:20:11;37.10;92.10
21090;DHT22;10703;51.020;6.128;2023-09-12T13:22:38;37.90;91.20
21090;DHT22;10703;51.020;6.128;2023-09-12T13:25:05;38.60;90.50
21090;DHT22;10703;51.020;6.128;2023-09-12T13:27:32;38.90;91.90
21090;DHT22;10703;51.020;6.128;2023-09-12T13:30:00;39.10;90.90
21090;DHT22;10703;51.020;6.128;2023-09-12T13:32:26;39.10;89.70
21090;DHT22;10703;51.020;6.128;2023-09-12T13:34:53;39.40;90.20
21090;DHT22;10703;51.020;6.128;2023-09-12T13:37:20;39.40;89.40
21090;DHT22;10703;51.020;6.128;2023-09-12T13:39:48;40.00;89.80
21090;DHT22;10703;51.020;6.128;2023-09-12T13:42:16;39.60;89.60
21090;DHT22;10703;51.020;6.128;2023-09-12T13:44:47;39.20;89.50
21090;DHT22;10703;51.020;6.128;2023-09-12T13:47:14;38.70;87.50
21090;DHT22;10703;51.020;6.128;2023-09-12T13:49:48;39.10;90.30
21090;DHT22;10703;51.020;6.128;2023-09-12T13:52:15;39.60;88.30
21090;DHT22;10703;51.020;6.128;2023-09-12T13:54:42;38.40;89.80
21090;DHT22;10703;51.020;6.128;2023-09-12T13:57:08;38.30;90.50
21090;DHT22;10703;51.020;6.128;2023-09-12T13:59:35;38.10;90.50
21090;DHT22;10703;51.020;6.128;2023-09-12T14:02:11;38.60;89.80
21090;DHT22;10703;51.020;6.128;2023-09-12T14:04:39;37.90;89.60
21090;DHT22;10703;51.020;6.128;2023-09-12T14:07:07;37.00;90.00
21090;DHT22;10703;51.020;6.128;2023-09-12T14:09:36;35.40;90.90
21090;DHT22;10703;51.020;6.128;2023-09-12T14:12:03;34.40;92.40
21090;DHT22;10703;51.020;6.128;2023-09-12T14:14:32;34.70;91.80
21090;DHT22;10703;51.020;6.128;2023-09-12T14:16:59;34.80;92.50
21090;DHT22;10703;51.020;6.128;2023-09-12T14:19:27;34.80;91.90
21090;DHT22;10703;51.020;6.128;2023-09-12T14:21:55;34.90;92.10
21090;DHT22;10703;51.020;6.128;2023-09-12T14:24:23;35.80;92.40
21090;DHT22;10703;51.020;6.128;2023-09-12T14:26:51;36.40;90.60
21090;DHT22;10703;51.020;6.128;2023-09-12T14:29:21;36.80;89.70
21090;DHT22;10703;51.020;6.128;2023-09-12T14:31:48;37.20;90.40
21090;DHT22;10703;51.020;6.128;2023-09-12T14:34:25;37.00;89.60
21090;DHT22;10703;51.020;6.128;2023-09-12T14:36:55;36.50;90.10
21090;DHT22;10703;51.020;6.128;2023-09-12T14:39:23;35.40;91.30
21090;DHT22;10703;51.020;6.128;2023-09-12T14:41:50;35.00;90.90
21090;DHT22;10703;51.020;6.128;2023-09-12T14:44:21;34.60;90.70
21090;DHT22;10703;51.020;6.128;2023-09-12T14:46:48;34.20;91.40
21090;DHT22;10703;51.020;6.128;2023-09-12T14:49:16;34.50;91.80
21090;DHT22;10703;51.020;6.128;2023-09-12T14:51:43;34.50;91.20
21090;DHT22;10703;51.020;6.128;2023-09-12T14:54:10;34.30;91.10
21090;DHT22;10703;51.020;6.128;2023-09-12T14:56:37;34.40;91.10
21090;DHT22;10703;51.020;6.128;2023-09-12T14:59:04;34.40;91.60
21090;DHT22;10703;51.020;6.128;2023-09-12T15:01:31;34.40;92.20
21090;DHT22;10703;51.020;6.128;2023-09-12T15:03:58;34.20;91.60
21090;DHT22;10703;51.020;6.128;2023-09-12T15:06:24;34.60;91.70
21090;DHT22;10703;51.020;6.128;2023-09-12T15:08:51;34.90;92.10
21090;DHT22;10703;51.020;6.128;2023-09-12T15:11:18;35.00;92.70
21090;DHT22;10703;51.020;6.128;2023-09-12T15:13:45;35.20;91.50
21090;DHT22;10703;51.020;6.128;2023-09-12T15:16:14;34.90;91.30
21090;DHT22;10703;51.020;6.128;2023-09-12T15:18:40;35.10;91.60
21090;DHT22;10703;51.020;6.128;2023-09-12T15:21:08;35.40;91.60
21090;DHT22;10703;51.020;6.128;2023-09-12T15:23:35;35.10;91.60
21090;DHT22;10703;51.020;6.128;2023-09-12T15:26:01;35.40;91.70
21090;DHT22;10703;51.020;6.128;2023-09-12T15:28:28;35.50;91.30
21090;DHT22;10703;51.020;6.128;2023-09-12T15:30:55;35.40;91.40
21090;DHT22;10703;51.020;6.128;2023-09-12T15:33:22;35.40;91.50
21090;DHT22;10703;51.020;6.128;2023-09-12T15:35:49;36.00;91.50
21090;DHT22;10703;51.020;6.128;2023-09-12T15:38:16;35.70;91.80
21090;DHT22;10703;51.020;6.128;2023-09-12T15:40:42;36.00;91.10
21090;DHT22;10703;51.020;6.128;2023-09-12T15:43:09;36.00;91.30
21090;DHT22;10703;51.020;6.128;2023-09-12T15:45:50;34.90;91.70